createdAt,value
2023-04-27T00:00:03.701Z,1014.23
2023-04-27T00:01:03.718Z,1014.28
2023-04-27T00:02:03.766Z,1014.28
2023-04-27T00:03:03.900Z,1014.24
2023-04-27T00:04:03.933Z,1014.25
2023-04-27T00:05:04.070Z,1014.30
2023-04-27T00:06:03.935Z,1014.26
2023-04-27T00:07:03.845Z,1014.26
2023-04-27T00:08:03.864Z,1014.27
2023-04-27T00:09:03.883Z,1014.30
2023-04-27T00:10:03.905Z,1014.26
2023-04-27T00:11:03.966Z,1014.24
2023-04-27T00:12:03.939Z,1014.29
2023-04-27T00:13:03.969Z,1014.27
2023-04-27T00:14:03.986Z,1014.30
2023-04-27T00:15:04.003Z,1014.33
2023-04-27T00:16:04.125Z,1014.36
2023-04-27T00:17:04.044Z,1014.37
2023-04-27T00:18:04.075Z,1014.37
2023-04-27T00:19:04.092Z,1014.35
2023-04-27T00:20:04.106Z,1014.33
2023-04-27T00:21:04.133Z,1014.29
2023-04-27T00:22:04.148Z,1014.30
2023-04-27T00:23:04.164Z,1014.32
2023-04-27T00:24:04.190Z,1014.29
2023-04-27T00:25:04.205Z,1014.31
2023-04-27T00:26:04.228Z,1014.32
2023-04-27T00:27:04.377Z,1014.33
2023-04-27T00:28:04.274Z,1014.31
2023-04-27T00:29:04.293Z,1014.30
2023-04-27T00:30:04.310Z,1014.31
2023-04-27T00:31:04.325Z,1014.30
2023-04-27T00:32:04.518Z,1014.28
2023-04-27T00:33:04.395Z,1014.32
2023-04-27T00:34:04.387Z,1014.29
2023-04-27T00:35:04.404Z,1014.30
2023-04-27T00:36:04.436Z,1014.29
2023-04-27T00:37:04.447Z,1014.27
2023-04-27T00:38:04.466Z,1014.28
2023-04-27T00:39:04.491Z,1014.27
2023-04-27T00:40:04.498Z,1014.33
2023-04-27T00:41:04.525Z,1014.32
2023-04-27T00:42:04.546Z,1014.30
2023-04-27T00:43:04.561Z,1014.33
2023-04-27T00:44:04.589Z,1014.37
2023-04-27T00:45:04.602Z,1014.41
2023-04-27T00:46:04.692Z,1014.39
2023-04-27T00:47:04.643Z,1014.40
2023-04-27T00:48:04.754Z,1014.39
2023-04-27T00:49:04.732Z,1014.40
2023-04-27T00:50:04.716Z,1014.39
2023-04-27T00:51:04.732Z,1014.39
2023-04-27T00:52:04.738Z,1014.38
2023-04-27T00:53:04.756Z,1014.36
2023-04-27T00:54:04.781Z,1014.39
2023-04-27T00:55:04.798Z,1014.41
2023-04-27T00:56:04.816Z,1014.41
2023-04-27T00:57:04.839Z,1014.40
2023-04-27T00:58:04.859Z,1014.41
2023-04-27T00:59:04.915Z,1014.44
2023-04-27T01:00:04.906Z,1014.42
2023-04-27T01:01:04.958Z,1014.46
2023-04-27T01:02:04.958Z,1014.48
2023-04-27T01:03:05.172Z,1014.49
2023-04-27T01:04:05.088Z,1014.51
2023-04-27T01:05:04.995Z,1014.50
2023-04-27T01:06:05.018Z,1014.53
2023-04-27T01:07:05.031Z,1014.53
2023-04-27T01:08:05.062Z,1014.55
2023-04-27T01:09:05.075Z,1014.52
2023-04-27T01:10:05.098Z,1014.53
2023-04-27T01:11:05.116Z,1014.49
2023-04-27T01:12:05.132Z,1014.54
2023-04-27T01:13:05.163Z,1014.56
2023-04-27T01:14:05.174Z,1014.55
2023-04-27T01:15:05.186Z,1014.59
2023-04-27T01:16:05.211Z,1014.62
2023-04-27T01:17:05.246Z,1014.61
2023-04-27T01:18:05.304Z,1014.63
2023-04-27T01:19:05.280Z,1014.64
2023-04-27T01:20:05.298Z,1014.66
2023-04-27T01:21:05.306Z,1014.64
2023-04-27T01:22:05.328Z,1014.69
2023-04-27T01:23:05.347Z,1014.73
2023-04-27T01:24:05.366Z,1014.76
2023-04-27T01:25:05.383Z,1014.76
2023-04-27T01:26:05.401Z,1014.79
2023-04-27T01:27:05.423Z,1014.78
2023-04-27T01:28:05.448Z,1014.78
2023-04-27T01:29:05.461Z,1014.79
2023-04-27T01:30:05.479Z,1014.81
2023-04-27T01:31:05.526Z,1014.77
2023-04-27T01:32:05.522Z,1014.79
2023-04-27T01:33:05.558Z,1014.81
2023-04-27T01:34:05.558Z,1014.80
2023-04-27T01:35:05.575Z,1014.79
2023-04-27T01:36:05.597Z,1014.80
2023-04-27T01:37:05.618Z,1014.79
2023-04-27T01:38:05.654Z,1014.85
2023-04-27T01:39:05.650Z,1014.84
2023-04-27T01:40:05.682Z,1014.82
2023-04-27T01:41:05.694Z,1014.83
2023-04-27T01:42:05.718Z,1014.84
2023-04-27T01:43:05.734Z,1014.88
2023-04-27T01:44:05.754Z,1014.84
2023-04-27T01:45:05.772Z,1014.91
2023-04-27T01:46:05.824Z,1014.83
2023-04-27T01:47:05.813Z,1014.86
2023-04-27T01:48:05.877Z,1014.86
2023-04-27T01:49:05.854Z,1014.86
2023-04-27T01:50:05.890Z,1014.86
2023-04-27T01:51:05.887Z,1014.90
2023-04-27T01:52:05.906Z,1014.90
2023-04-27T01:53:05.926Z,1014.95
2023-04-27T01:54:05.946Z,1014.94
2023-04-27T01:55:05.967Z,1014.91
2023-04-27T01:56:05.984Z,1014.91
2023-04-27T01:57:06.006Z,1014.90
2023-04-27T01:58:06.037Z,1014.90
2023-04-27T01:59:06.039Z,1014.91
2023-04-27T02:00:06.078Z,1014.93
2023-04-27T02:01:06.084Z,1014.91
2023-04-27T02:02:06.191Z,1014.91
2023-04-27T02:03:06.244Z,1014.94
2023-04-27T02:04:06.285Z,1014.93
2023-04-27T02:05:06.158Z,1014.91
2023-04-27T02:06:06.184Z,1014.93
2023-04-27T02:07:06.188Z,1014.98
2023-04-27T02:08:06.220Z,1014.95
2023-04-27T02:09:06.232Z,1014.98
2023-04-27T02:10:06.248Z,1014.97
2023-04-27T02:11:06.269Z,1014.98
2023-04-27T02:12:06.293Z,1014.97
2023-04-27T02:13:06.305Z,1014.95
2023-04-27T02:14:06.332Z,1014.98
2023-04-27T02:15:06.353Z,1014.96
2023-04-27T02:16:06.483Z,1015.02
2023-04-27T02:17:06.378Z,1015.05
2023-04-27T02:18:06.453Z,1015.02
2023-04-27T02:19:06.417Z,1015.04
2023-04-27T02:20:06.434Z,1015.03
2023-04-27T02:21:06.491Z,1015.02
2023-04-27T02:22:06.472Z,1015.02
2023-04-27T02:23:06.491Z,1015.06
2023-04-27T02:24:06.519Z,1015.03
2023-04-27T02:25:06.531Z,1015.01
2023-04-27T02:26:06.556Z,1015.04
2023-04-27T02:27:06.567Z,1014.99
2023-04-27T02:28:06.582Z,1015.02
2023-04-27T02:29:06.604Z,1015.00
2023-04-27T02:30:06.634Z,1015.07
2023-04-27T02:31:06.664Z,1015.07
2023-04-27T02:32:06.660Z,1015.09
2023-04-27T02:33:06.716Z,1015.12
2023-04-27T02:34:06.692Z,1015.06
2023-04-27T02:35:06.713Z,1015.07
2023-04-27T02:36:06.759Z,1015.11
2023-04-27T02:37:06.766Z,1015.07
2023-04-27T02:38:06.827Z,1015.05
2023-04-27T02:39:06.787Z,1015.09
2023-04-27T02:40:06.806Z,1015.08
2023-04-27T02:41:06.955Z,1015.09
2023-04-27T02:42:06.844Z,1015.08
2023-04-27T02:43:06.874Z,1015.06
2023-04-27T02:44:06.884Z,1015.07
2023-04-27T02:45:06.898Z,1015.05
2023-04-27T02:46:06.915Z,1015.03
2023-04-27T02:47:06.998Z,1015.02
2023-04-27T02:48:07.004Z,1015.05
2023-04-27T02:49:06.971Z,1015.03
2023-04-27T02:50:07.015Z,1015.03
2023-04-27T02:51:07.068Z,1015.05
2023-04-27T02:52:07.030Z,1015.03
2023-04-27T02:53:07.045Z,1015.01
2023-04-27T02:54:07.059Z,1015.00
2023-04-27T02:55:07.080Z,1015.02
2023-04-27T02:56:07.095Z,1015.03
2023-04-27T02:57:07.115Z,1015.05
2023-04-27T02:58:07.139Z,1015.09
2023-04-27T02:59:07.149Z,1015.07
2023-04-27T03:00:07.173Z,1015.04
2023-04-27T03:01:07.213Z,1015.04
2023-04-27T03:02:07.222Z,1015.01
2023-04-27T03:03:07.371Z,1014.94
2023-04-27T03:04:07.475Z,1015.00
2023-04-27T03:05:07.264Z,1015.02
2023-04-27T03:06:07.286Z,1015.02
2023-04-27T03:07:07.310Z,1014.99
2023-04-27T03:08:07.315Z,1014.99
2023-04-27T03:09:07.336Z,1014.97
2023-04-27T03:10:07.390Z,1014.93
2023-04-27T03:11:07.371Z,1014.91
2023-04-27T03:12:07.387Z,1014.92
2023-04-27T03:13:07.405Z,1014.88
2023-04-27T03:14:07.424Z,1014.88
2023-04-27T03:15:07.447Z,1014.87
2023-04-27T03:16:07.529Z,1014.86
2023-04-27T03:17:07.479Z,1014.82
2023-04-27T03:18:07.523Z,1014.86
2023-04-27T03:19:07.519Z,1014.86
2023-04-27T03:20:07.532Z,1014.83
2023-04-27T03:21:07.556Z,1014.86
2023-04-27T03:22:07.584Z,1014.84
2023-04-27T03:23:07.602Z,1014.81
2023-04-27T03:24:07.605Z,1014.80
2023-04-27T03:25:07.627Z,1014.81
2023-04-27T03:26:07.655Z,1014.83
2023-04-27T03:27:07.662Z,1014.85
2023-04-27T03:28:07.675Z,1014.84
2023-04-27T03:29:07.696Z,1014.84
2023-04-27T03:30:07.713Z,1014.84
2023-04-27T03:31:07.729Z,1014.82
2023-04-27T03:32:07.798Z,1014.84
2023-04-27T03:33:07.829Z,1014.82
2023-04-27T03:34:07.782Z,1014.81
2023-04-27T03:35:07.821Z,1014.82
2023-04-27T03:36:07.820Z,1014.85
2023-04-27T03:37:07.839Z,1014.86
2023-04-27T03:38:07.861Z,1014.82
2023-04-27T03:39:07.873Z,1014.82
2023-04-27T03:40:07.899Z,1014.82
2023-04-27T03:41:07.912Z,1014.85
2023-04-27T03:42:07.930Z,1014.84
2023-04-27T03:43:07.946Z,1014.81
2023-04-27T03:44:07.967Z,1014.80
2023-04-27T03:45:07.984Z,1014.86
2023-04-27T03:46:08.054Z,1014.82
2023-04-27T03:47:08.013Z,1014.85
2023-04-27T03:48:08.050Z,1014.84
2023-04-27T03:49:08.053Z,1014.84
2023-04-27T03:50:08.080Z,1014.87
2023-04-27T03:51:08.085Z,1014.88
2023-04-27T03:52:08.106Z,1014.90
2023-04-27T03:53:08.125Z,1014.88
2023-04-27T03:54:08.144Z,1014.86
2023-04-27T03:55:08.173Z,1014.85
2023-04-27T03:56:08.175Z,1014.89
2023-04-27T03:57:08.200Z,1014.90
2023-04-27T03:58:08.226Z,1014.84
2023-04-27T03:59:08.226Z,1014.83
2023-04-27T04:00:08.288Z,1014.81
2023-04-27T04:01:08.290Z,1014.81
2023-04-27T04:02:08.329Z,1014.82
2023-04-27T04:03:08.644Z,1014.81
2023-04-27T04:04:08.508Z,1014.83
2023-04-27T04:05:08.364Z,1014.87
2023-04-27T04:06:08.353Z,1014.90
2023-04-27T04:07:08.374Z,1014.91
2023-04-27T04:08:08.388Z,1014.94
2023-04-27T04:09:08.404Z,1014.96
2023-04-27T04:10:08.426Z,1014.98
2023-04-27T04:11:08.461Z,1014.99
2023-04-27T04:12:08.461Z,1015.03
2023-04-27T04:13:08.482Z,1015.04
2023-04-27T04:14:08.498Z,1015.05
2023-04-27T04:15:08.506Z,1015.05
2023-04-27T04:16:08.726Z,1015.06
2023-04-27T04:17:08.543Z,1015.06
2023-04-27T04:18:08.597Z,1015.06
2023-04-27T04:19:08.599Z,1015.09
2023-04-27T04:20:08.605Z,1015.04
2023-04-27T04:21:08.617Z,1015.06
2023-04-27T04:22:08.635Z,1015.04
2023-04-27T04:23:08.650Z,1015.06
2023-04-27T04:24:08.673Z,1015.10
2023-04-27T04:25:08.713Z,1015.10
2023-04-27T04:26:08.713Z,1015.18
2023-04-27T04:27:08.721Z,1015.22
2023-04-27T04:28:08.746Z,1015.18
2023-04-27T04:29:10.828Z,1015.15
2023-04-27T04:30:08.803Z,1015.18
2023-04-27T04:31:08.889Z,1015.17
2023-04-27T04:32:08.827Z,1015.21
2023-04-27T04:33:08.919Z,1015.23
2023-04-27T04:34:08.861Z,1015.25
2023-04-27T04:35:08.864Z,1015.26
2023-04-27T04:36:08.894Z,1015.28
2023-04-27T04:37:08.901Z,1015.27
2023-04-27T04:38:08.924Z,1015.25
2023-04-27T04:39:08.937Z,1015.29
2023-04-27T04:40:09.159Z,1015.27
2023-04-27T04:41:09.006Z,1015.25
2023-04-27T04:42:08.991Z,1015.29
2023-04-27T04:43:09.007Z,1015.29
2023-04-27T04:44:09.031Z,1015.30
2023-04-27T04:45:09.044Z,1015.32
2023-04-27T04:46:09.127Z,1015.31
2023-04-27T04:47:09.080Z,1015.36
2023-04-27T04:48:09.098Z,1015.33
2023-04-27T04:49:09.117Z,1015.33
2023-04-27T04:50:09.147Z,1015.29
2023-04-27T04:51:09.150Z,1015.31
2023-04-27T04:52:09.202Z,1015.35
2023-04-27T04:53:09.195Z,1015.32
2023-04-27T04:54:09.201Z,1015.38
2023-04-27T04:55:09.223Z,1015.37
2023-04-27T04:56:09.242Z,1015.36
2023-04-27T04:57:09.259Z,1015.41
2023-04-27T04:58:09.282Z,1015.38
2023-04-27T04:59:09.295Z,1015.45
2023-04-27T05:00:09.315Z,1015.48
2023-04-27T05:01:09.364Z,1015.44
2023-04-27T05:02:09.353Z,1015.47
2023-04-27T05:03:09.521Z,1015.44
2023-04-27T05:04:09.640Z,1015.46
2023-04-27T05:05:09.500Z,1015.43
2023-04-27T05:06:09.422Z,1015.44
2023-04-27T05:07:09.449Z,1015.42
2023-04-27T05:08:09.468Z,1015.42
2023-04-27T05:09:09.480Z,1015.45
2023-04-27T05:10:09.556Z,1015.46
2023-04-27T05:11:09.535Z,1015.40
2023-04-27T05:12:09.585Z,1015.44
2023-04-27T05:13:09.562Z,1015.47
2023-04-27T05:14:09.587Z,1015.45
2023-04-27T05:15:09.601Z,1015.49
2023-04-27T05:16:09.641Z,1015.47
2023-04-27T05:17:09.645Z,1015.52
2023-04-27T05:18:09.789Z,1015.51
2023-04-27T05:19:09.680Z,1015.53
2023-04-27T05:20:09.760Z,1015.53
2023-04-27T05:21:09.730Z,1015.52
2023-04-27T05:22:09.737Z,1015.52
2023-04-27T05:23:09.764Z,1015.56
2023-04-27T05:24:09.781Z,1015.52
2023-04-27T05:25:09.797Z,1015.54
2023-04-27T05:26:09.816Z,1015.57
2023-04-27T05:27:09.845Z,1015.63
2023-04-27T05:28:09.884Z,1015.60
2023-04-27T05:29:09.893Z,1015.64
2023-04-27T05:30:09.933Z,1015.62
2023-04-27T05:31:09.961Z,1015.63
2023-04-27T05:32:10.041Z,1015.64
2023-04-27T05:33:09.993Z,1015.64
2023-04-27T05:34:10.002Z,1015.71
2023-04-27T05:35:10.004Z,1015.66
2023-04-27T05:36:10.040Z,1015.68
2023-04-27T05:37:10.079Z,1015.68
2023-04-27T05:38:10.086Z,1015.70
2023-04-27T05:39:10.089Z,1015.72
2023-04-27T05:40:10.112Z,1015.75
2023-04-27T05:41:10.140Z,1015.76
2023-04-27T05:42:10.185Z,1015.75
2023-04-27T05:43:10.179Z,1015.75
2023-04-27T05:44:10.207Z,1015.77
2023-04-27T05:45:10.219Z,1015.80
2023-04-27T05:46:10.309Z,1015.83
2023-04-27T05:47:10.262Z,1015.80
2023-04-27T05:48:10.280Z,1015.85
2023-04-27T05:49:10.304Z,1015.85
2023-04-27T05:50:10.328Z,1015.85
2023-04-27T05:51:13.093Z,1015.83
2023-04-27T05:52:10.373Z,1015.86
2023-04-27T05:53:10.501Z,1015.87
2023-04-27T05:54:10.411Z,1015.85
2023-04-27T05:55:10.431Z,1015.89
2023-04-27T05:56:10.455Z,1015.92
2023-04-27T05:57:10.480Z,1015.95
2023-04-27T05:58:10.500Z,1015.90
2023-04-27T05:59:10.533Z,1015.91
2023-04-27T06:00:10.540Z,1015.91
2023-04-27T06:01:10.574Z,1015.89
2023-04-27T06:02:10.604Z,1015.94
2023-04-27T06:03:10.659Z,1015.86
2023-04-27T06:04:10.687Z,1015.86
2023-04-27T06:05:10.702Z,1015.82
2023-04-27T06:06:10.676Z,1015.83
2023-04-27T06:07:10.690Z,1015.86
2023-04-27T06:08:10.713Z,1015.81
2023-04-27T06:09:10.755Z,1015.88
2023-04-27T06:10:10.761Z,1015.88
2023-04-27T06:11:10.786Z,1015.89
2023-04-27T06:12:10.809Z,1015.86
2023-04-27T06:13:10.838Z,1015.88
2023-04-27T06:14:10.848Z,1015.89
2023-04-27T06:15:10.865Z,1015.87
2023-04-27T06:16:10.904Z,1015.88
2023-04-27T06:17:10.911Z,1015.92
2023-04-27T06:18:10.957Z,1015.92
2023-04-27T06:19:11.030Z,1015.96
2023-04-27T06:20:10.992Z,1015.98
2023-04-27T06:21:11.014Z,1015.98
2023-04-27T06:22:11.027Z,1015.98
2023-04-27T06:23:11.051Z,1015.97
2023-04-27T06:24:11.085Z,1016.00
2023-04-27T06:25:11.104Z,1016.00
2023-04-27T06:26:11.471Z,1016.00
2023-04-27T06:27:11.146Z,1016.01
2023-04-27T06:28:11.176Z,1016.03
2023-04-27T06:29:11.349Z,1016.04
2023-04-27T06:30:11.225Z,1016.06
2023-04-27T06:31:11.250Z,1016.05
2023-04-27T06:32:11.314Z,1016.04
2023-04-27T06:33:11.346Z,1016.05
2023-04-27T06:34:11.327Z,1016.05
2023-04-27T06:35:11.359Z,1016.04
2023-04-27T06:36:11.571Z,1016.03
2023-04-27T06:37:11.409Z,1016.02
2023-04-27T06:38:11.426Z,1016.04
2023-04-27T06:39:11.594Z,1016.06
2023-04-27T06:40:11.480Z,1016.07
2023-04-27T06:41:11.569Z,1016.08
2023-04-27T06:42:11.528Z,1016.08
2023-04-27T06:43:11.554Z,1016.03
2023-04-27T06:44:11.580Z,1016.07
2023-04-27T06:45:11.606Z,1016.07
2023-04-27T06:46:11.654Z,1016.04
2023-04-27T06:47:11.658Z,1016.05
2023-04-27T06:48:11.711Z,1016.04
2023-04-27T06:49:11.918Z,1016.06
2023-04-27T06:50:11.738Z,1016.10
2023-04-27T06:51:11.789Z,1016.12
2023-04-27T06:52:11.795Z,1016.09
2023-04-27T06:53:11.827Z,1016.10
2023-04-27T06:54:11.855Z,1016.08
2023-04-27T06:55:11.878Z,1016.11
2023-04-27T06:56:11.894Z,1016.11
2023-04-27T06:57:11.935Z,1016.14
2023-04-27T06:58:11.954Z,1016.14
2023-04-27T06:59:12.108Z,1016.13
2023-04-27T07:00:12.012Z,1016.12
2023-04-27T07:01:12.084Z,1016.14
2023-04-27T07:02:12.059Z,1016.08
2023-04-27T07:03:12.175Z,1016.10
2023-04-27T07:04:12.250Z,1016.04
2023-04-27T07:05:12.158Z,1016.05
2023-04-27T07:06:12.171Z,1016.00
2023-04-27T07:07:12.190Z,1015.99
2023-04-27T07:08:12.225Z,1015.95
2023-04-27T07:09:26.202Z,1015.87
2023-04-27T07:10:12.282Z,1015.89
2023-04-27T07:11:12.382Z,1015.86
2023-04-27T07:12:12.333Z,1015.91
2023-04-27T07:13:12.625Z,1015.91
2023-04-27T07:14:12.374Z,1015.88
2023-04-27T07:15:12.447Z,1015.86
2023-04-27T07:16:12.491Z,1015.85
2023-04-27T07:17:12.462Z,1015.84
2023-04-27T07:18:12.475Z,1015.88
2023-04-27T07:19:12.904Z,1015.83
2023-04-27T07:20:12.526Z,1015.83
2023-04-27T07:21:12.566Z,1015.83
2023-04-27T07:22:12.597Z,1015.84
2023-04-27T07:23:12.613Z,1015.82
2023-04-27T07:24:12.613Z,1015.86
2023-04-27T07:25:12.636Z,1015.91
2023-04-27T07:26:12.664Z,1015.89
2023-04-27T07:27:12.678Z,1015.85
2023-04-27T07:28:12.713Z,1015.82
2023-04-27T07:29:25.497Z,1015.81
2023-04-27T07:30:12.743Z,1015.77
2023-04-27T07:31:12.893Z,1015.81
2023-04-27T07:32:12.923Z,1015.80
2023-04-27T07:33:12.815Z,1015.82
2023-04-27T07:34:12.859Z,1015.72
2023-04-27T07:35:12.857Z,1015.74
2023-04-27T07:36:12.891Z,1015.74
2023-04-27T07:37:12.902Z,1015.71
2023-04-27T07:38:12.924Z,1015.74
2023-04-27T07:39:13.200Z,1015.73
2023-04-27T07:40:12.968Z,1015.78
2023-04-27T07:41:13.004Z,1015.76
2023-04-27T07:42:13.012Z,1015.76
2023-04-27T07:43:13.037Z,1015.74
2023-04-27T07:44:13.060Z,1015.77
2023-04-27T07:45:13.081Z,1015.73
2023-04-27T07:46:13.192Z,1015.73
2023-04-27T07:47:13.120Z,1015.75
2023-04-27T07:48:13.208Z,1015.75
2023-04-27T07:49:13.312Z,1015.71
2023-04-27T07:50:13.190Z,1015.69
2023-04-27T07:51:13.214Z,1015.72
2023-04-27T07:52:13.231Z,1015.69
2023-04-27T07:53:13.294Z,1015.69
2023-04-27T07:54:13.288Z,1015.66
2023-04-27T07:55:13.295Z,1015.69
2023-04-27T07:56:13.320Z,1015.68
2023-04-27T07:57:13.344Z,1015.66
2023-04-27T07:58:13.364Z,1015.67
2023-04-27T07:59:13.567Z,1015.67
2023-04-27T08:00:13.409Z,1015.68
2023-04-27T08:01:13.434Z,1015.66
2023-04-27T08:02:19.792Z,1015.70
2023-04-27T08:03:13.806Z,1015.71
2023-04-27T08:04:13.769Z,1015.68
2023-04-27T08:05:13.927Z,1015.69
2023-04-27T08:06:13.970Z,1015.71
2023-04-27T08:07:14.124Z,1015.66
2023-04-27T08:08:13.787Z,1015.69
2023-04-27T08:09:13.978Z,1015.74
2023-04-27T08:10:13.648Z,1015.69
2023-04-27T08:11:13.655Z,1015.73
2023-04-27T08:12:13.687Z,1015.71
2023-04-27T08:13:13.709Z,1015.69
2023-04-27T08:14:13.770Z,1015.72
2023-04-27T08:15:13.744Z,1015.72
2023-04-27T08:16:13.798Z,1015.68
2023-04-27T08:17:13.854Z,1015.68
2023-04-27T08:18:13.847Z,1015.69
2023-04-27T08:19:14.059Z,1015.66
2023-04-27T08:20:13.873Z,1015.66
2023-04-27T08:21:13.879Z,1015.71
2023-04-27T08:22:13.908Z,1015.68
2023-04-27T08:23:13.921Z,1015.71
2023-04-27T08:24:13.944Z,1015.72
2023-04-27T08:25:13.968Z,1015.72
2023-04-27T08:26:13.994Z,1015.72
2023-04-27T08:27:14.020Z,1015.74
2023-04-27T08:28:14.034Z,1015.77
2023-04-27T08:29:26.372Z,1015.79
2023-04-27T08:30:14.081Z,1015.78
2023-04-27T08:31:14.168Z,1015.75
2023-04-27T08:32:14.125Z,1015.79
2023-04-27T08:33:14.184Z,1015.77
2023-04-27T08:34:14.172Z,1015.77
2023-04-27T08:35:14.203Z,1015.79
2023-04-27T08:36:14.216Z,1015.77
2023-04-27T08:37:14.241Z,1015.77
2023-04-27T08:38:14.260Z,1015.75
2023-04-27T08:39:14.546Z,1015.76
2023-04-27T08:40:14.326Z,1015.74
2023-04-27T08:41:20.895Z,1015.78
2023-04-27T08:42:14.348Z,1015.72
2023-04-27T08:43:14.373Z,1015.72
2023-04-27T08:44:14.402Z,1015.69
2023-04-27T08:45:14.428Z,1015.73
2023-04-27T08:46:14.497Z,1015.71
2023-04-27T08:47:14.463Z,1015.67
2023-04-27T08:48:14.524Z,1015.66
2023-04-27T08:49:16.738Z,1015.65
2023-04-27T08:50:14.529Z,1015.68
2023-04-27T08:51:14.554Z,1015.67
2023-04-27T08:52:14.575Z,1015.70
2023-04-27T08:53:14.598Z,1015.71
2023-04-27T08:54:14.622Z,1015.68
2023-04-27T08:55:16.510Z,1015.66
2023-04-27T08:56:14.674Z,1015.66
2023-04-27T08:57:14.693Z,1015.66
2023-04-27T08:58:14.717Z,1015.64
2023-04-27T08:59:15.382Z,1015.66
2023-04-27T09:00:14.760Z,1015.69
2023-04-27T09:01:14.782Z,1015.71
2023-04-27T09:02:14.858Z,1015.75
2023-04-27T09:03:14.946Z,1015.74
2023-04-27T09:04:14.969Z,1015.76
2023-04-27T09:05:14.914Z,1015.75
2023-04-27T09:06:15.114Z,1015.76
2023-04-27T09:07:14.921Z,1015.72
2023-04-27T09:08:14.941Z,1015.72
2023-04-27T09:09:15.161Z,1015.72
2023-04-27T09:10:14.988Z,1015.67
2023-04-27T09:11:15.002Z,1015.69
2023-04-27T09:12:15.033Z,1015.67
2023-04-27T09:13:15.054Z,1015.70
2023-04-27T09:14:15.088Z,1015.64
2023-04-27T09:15:15.097Z,1015.68
2023-04-27T09:16:15.276Z,1015.65
2023-04-27T09:17:15.146Z,1015.60
2023-04-27T09:18:15.197Z,1015.63
2023-04-27T09:19:15.359Z,1015.57
2023-04-27T09:20:15.220Z,1015.58
2023-04-27T09:21:15.357Z,1015.61
2023-04-27T09:22:15.263Z,1015.59
2023-04-27T09:23:15.282Z,1015.60
2023-04-27T09:24:15.305Z,1015.59
2023-04-27T09:25:15.329Z,1015.57
2023-04-27T09:26:15.350Z,1015.59
2023-04-27T09:27:15.374Z,1015.57
2023-04-27T09:28:15.421Z,1015.63
2023-04-27T09:29:15.626Z,1015.64
2023-04-27T09:30:15.443Z,1015.64
2023-04-27T09:31:15.507Z,1015.68
2023-04-27T09:32:16.788Z,1015.69
2023-04-27T09:33:15.513Z,1015.69
2023-04-27T09:34:15.536Z,1015.70
2023-04-27T09:35:15.560Z,1015.65
2023-04-27T09:36:15.584Z,1015.75
2023-04-27T09:37:15.635Z,1015.71
2023-04-27T09:38:17.073Z,1015.66
2023-04-27T09:39:15.650Z,1015.67
2023-04-27T09:40:15.677Z,1015.65
2023-04-27T09:41:15.701Z,1015.63
2023-04-27T09:42:15.728Z,1015.69
2023-04-27T09:43:15.754Z,1015.64
2023-04-27T09:44:15.772Z,1015.62
2023-04-27T09:45:15.797Z,1015.64
2023-04-27T09:46:15.851Z,1015.63
2023-04-27T09:47:15.841Z,1015.56
2023-04-27T09:48:15.869Z,1015.59
2023-04-27T09:49:15.941Z,1015.58
2023-04-27T09:50:15.915Z,1015.59
2023-04-27T09:51:15.940Z,1015.55
2023-04-27T09:52:15.962Z,1015.50
2023-04-27T09:53:16.002Z,1015.48
2023-04-27T09:54:16.021Z,1015.46
2023-04-27T09:55:16.043Z,1015.49
2023-04-27T09:56:16.066Z,1015.46
2023-04-27T09:57:16.085Z,1015.48
2023-04-27T09:58:16.111Z,1015.46
2023-04-27T09:59:16.130Z,1015.43
2023-04-27T10:00:16.161Z,1015.42
2023-04-27T10:01:16.187Z,1015.40
2023-04-27T10:02:24.665Z,1015.41
2023-04-27T10:03:16.281Z,1015.37
2023-04-27T10:04:16.352Z,1015.41
2023-04-27T10:05:16.337Z,1015.42
2023-04-27T10:06:16.304Z,1015.37
2023-04-27T10:07:16.331Z,1015.38
2023-04-27T10:08:16.360Z,1015.40
2023-04-27T10:09:16.505Z,1015.37
2023-04-27T10:10:16.406Z,1015.39
2023-04-27T10:11:16.430Z,1015.40
2023-04-27T10:12:16.453Z,1015.37
2023-04-27T10:13:16.473Z,1015.40
2023-04-27T10:14:16.502Z,1015.34
2023-04-27T10:15:16.538Z,1015.35
2023-04-27T10:16:16.616Z,1015.34
2023-04-27T10:17:16.570Z,1015.31
2023-04-27T10:18:16.770Z,1015.34
2023-04-27T10:19:16.796Z,1015.36
2023-04-27T10:20:16.727Z,1015.35
2023-04-27T10:21:16.667Z,1015.31
2023-04-27T10:22:17.171Z,1015.26
2023-04-27T10:23:16.716Z,1015.29
2023-04-27T10:24:16.777Z,1015.28
2023-04-27T10:25:16.771Z,1015.25
2023-04-27T10:26:16.793Z,1015.24
2023-04-27T10:27:16.820Z,1015.27
2023-04-27T10:28:16.850Z,1015.22
2023-04-27T10:29:16.865Z,1015.27
2023-04-27T10:30:16.932Z,1015.25
2023-04-27T10:31:16.979Z,1015.28
2023-04-27T10:32:16.951Z,1015.24
2023-04-27T10:33:17.000Z,1015.19
2023-04-27T10:34:19.049Z,1015.14
2023-04-27T10:35:17.057Z,1015.12
2023-04-27T10:36:17.061Z,1015.18
2023-04-27T10:37:17.074Z,1015.13
2023-04-27T10:38:17.109Z,1015.12
2023-04-27T10:39:17.160Z,1015.10
2023-04-27T10:40:17.269Z,1015.13
2023-04-27T10:41:17.175Z,1015.09
2023-04-27T10:42:17.200Z,1015.12
2023-04-27T10:43:17.217Z,1015.14
2023-04-27T10:44:17.248Z,1015.17
2023-04-27T10:45:17.257Z,1015.19
2023-04-27T10:46:17.289Z,1015.14
2023-04-27T10:47:17.298Z,1015.13
2023-04-27T10:48:17.328Z,1015.13
2023-04-27T10:49:17.346Z,1015.07
2023-04-27T10:50:17.420Z,1015.13
2023-04-27T10:51:17.463Z,1015.14
2023-04-27T10:52:17.416Z,1015.05
2023-04-27T10:53:17.455Z,1015.13
2023-04-27T10:54:17.466Z,1015.16
2023-04-27T10:55:17.490Z,1015.12
2023-04-27T10:56:17.511Z,1015.07
2023-04-27T10:57:17.555Z,1015.07
2023-04-27T10:58:17.570Z,1015.07
2023-04-27T10:59:17.584Z,1015.03
2023-04-27T11:00:17.672Z,1015.01
2023-04-27T11:01:17.692Z,1014.97
2023-04-27T11:02:17.697Z,1014.97
2023-04-27T11:03:17.804Z,1014.94
2023-04-27T11:04:17.898Z,1014.92
2023-04-27T11:05:17.733Z,1014.88
2023-04-27T11:06:17.783Z,1014.87
2023-04-27T11:07:17.788Z,1014.83
2023-04-27T11:08:17.827Z,1014.82
2023-04-27T11:09:17.818Z,1014.79
2023-04-27T11:10:17.841Z,1014.73
2023-04-27T11:11:17.865Z,1014.73
2023-04-27T11:12:17.887Z,1014.72
2023-04-27T11:13:17.962Z,1014.71
2023-04-27T11:14:17.938Z,1014.71
2023-04-27T11:15:17.960Z,1014.73
2023-04-27T11:16:18.106Z,1014.69
2023-04-27T11:17:18.006Z,1014.65
2023-04-27T11:18:18.031Z,1014.68
2023-04-27T11:19:18.057Z,1014.73
2023-04-27T11:20:18.078Z,1014.73
2023-04-27T11:21:18.100Z,1014.73
2023-04-27T11:22:18.130Z,1014.64
2023-04-27T11:23:18.151Z,1014.70
2023-04-27T11:24:18.183Z,1014.73
2023-04-27T11:25:18.197Z,1014.73
2023-04-27T11:26:18.228Z,1014.71
2023-04-27T11:27:18.264Z,1014.70
2023-04-27T11:28:18.273Z,1014.67
2023-04-27T11:29:18.352Z,1014.67
2023-04-27T11:30:18.327Z,1014.66
2023-04-27T11:31:18.405Z,1014.66
2023-04-27T11:32:18.364Z,1014.69
2023-04-27T11:33:18.387Z,1014.66
2023-04-27T11:34:19.363Z,1014.66
2023-04-27T11:35:18.531Z,1014.66
2023-04-27T11:36:18.465Z,1014.69
2023-04-27T11:37:18.886Z,1014.67
2023-04-27T11:38:18.508Z,1014.72
2023-04-27T11:39:18.619Z,1014.67
2023-04-27T11:40:18.560Z,1014.67
2023-04-27T11:41:18.579Z,1014.63
2023-04-27T11:42:18.620Z,1014.60
2023-04-27T11:43:18.625Z,1014.62
2023-04-27T11:44:18.646Z,1014.57
2023-04-27T11:45:18.670Z,1014.64
2023-04-27T11:46:18.707Z,1014.61
2023-04-27T11:47:19.075Z,1014.61
2023-04-27T11:48:18.739Z,1014.59
2023-04-27T11:49:18.775Z,1014.65
2023-04-27T11:50:18.787Z,1014.67
2023-04-27T11:51:18.812Z,1014.67
2023-04-27T11:52:18.841Z,1014.68
2023-04-27T11:53:19.152Z,1014.72
2023-04-27T11:54:18.896Z,1014.70
2023-04-27T11:55:18.905Z,1014.69
2023-04-27T11:56:18.933Z,1014.65
2023-04-27T11:57:18.960Z,1014.65
2023-04-27T11:58:18.993Z,1014.61
2023-04-27T11:59:19.002Z,1014.57
2023-04-27T12:00:19.022Z,1014.59
2023-04-27T12:01:27.733Z,1014.60
2023-04-27T12:02:19.153Z,1014.61
2023-04-27T12:03:19.242Z,1014.59
2023-04-27T12:04:19.439Z,1014.60
2023-04-27T12:05:19.229Z,1014.57